Time;durP1;ratioP1;P1;durP2;ratioP2;P2;SDS_P1;SDS_P2;PMS_P1;PMS_P2;Temp;Humidity;BMP_temperature;BMP_pressure;BME280_temperature;BME280_humidity;BME280_pressure;Samples;Min_cycle;Max_cycle;Signal;HPM_P1;HPM_P2
2021/12/17 00:00:46;;;;;;;;;;;10.20;88.80;;;;;;5026640;28;19902;-86
2021/12/17 00:03:31;;;;;;;;;;;10.20;88.80;;;;;;5027633;28;20016;-86
2021/12/17 00:06:57;;;;;;;;;;;10.10;88.80;;;;;;5028262;28;20328;-86
2021/12/17 00:08:54;;;;;;;;;;;10.10;88.90;;;;;;5034586;28;20473;-86
2021/12/17 00:11:20;;;;;;;;;;;10.10;89.10;;;;;;5023073;28;19921;-86
2021/12/17 00:13:47;;;;;;;;;;;10.10;89.30;;;;;;5029744;28;20372;-86
2021/12/17 00:16:18;;;;;;;;;;;10.10;88.90;;;;;;5005234;28;19913;-85
2021/12/17 00:19:00;;;;;;;;;;;10.10;89.00;;;;;;4998430;28;19910;-86
2021/12/17 00:48:48;;;;;;;;;;;10.50;88.30;;;;;;5021143;28;19916;-86
2021/12/17 00:51:52;;;;;;;;;;;10.50;88.20;;;;;;5003793;28;19956;-87
2021/12/17 00:54:18;;;;;;;;;;;10.50;87.90;;;;;;5031006;28;19968;-86
2021/12/17 00:56:43;;;;;;;;;;;10.60;87.80;;;;;;5020162;28;19913;-86
2021/12/17 00:59:09;;;;;;;;;;;10.60;87.90;;;;;;5017772;28;19912;-85
2021/12/17 01:01:35;;;;;;;;;;;10.60;87.50;;;;;;5014292;28;19973;-86
2021/12/17 01:04:01;;;;;;;;;;;10.60;87.40;;;;;;4999634;28;20299;-86
2021/12/17 01:06:26;;;;;;;;;;;10.60;87.40;;;;;;5027610;28;19921;-86
2021/12/17 01:08:52;;;;;;;;;;;10.50;87.50;;;;;;5021049;28;19921;-85
2021/12/17 01:11:19;;;;;;;;;;;10.60;87.50;;;;;;5024362;28;19913;-86
2021/12/17 01:13:45;;;;;;;;;;;10.60;87.30;;;;;;5040216;28;19913;-86
2021/12/17 01:16:11;;;;;;;;;;;10.60;87.30;;;;;;5043798;28;19928;-86
2021/12/17 01:24:15;;;;;;;;;;;10.40;87.70;;;;;;5025807;28;19917;-87
2021/12/17 01:43:02;;;;;;;;;;;10.50;87.40;;;;;;5027346;28;20059;-86
2021/12/17 01:45:32;;;;;;;;;;;10.60;87.80;;;;;;5027064;28;20385;-85
2021/12/17 01:48:00;;;;;;;;;;;10.60;87.90;;;;;;5028124;28;20257;-86
2021/12/17 01:56:17;;;;;;;;;;;10.70;87.50;;;;;;5016898;28;19921;-86
2021/12/17 02:01:33;;;;;;;;;;;10.80;87.20;;;;;;5035156;28;19935;-86
2021/12/17 02:03:59;;;;;;;;;;;10.80;87.00;;;;;;5031522;28;19924;-87
2021/12/17 02:06:28;;;;;;;;;;;10.80;87.00;;;;;;5036662;28;19909;-87
2021/12/17 02:08:54;;;;;;;;;;;10.60;86.90;;;;;;5027236;28;19917;-87
2021/12/17 02:19:48;;;;;;;;;;;10.70;87.30;;;;;;5048600;28;19935;-87
2021/12/17 02:33:34;;;;;;;;;;;10.90;86.80;;;;;;4993128;28;19920;-85
2021/12/17 02:36:01;;;;;;;;;;;11.00;86.80;;;;;;5038462;28;19921;-85
2021/12/17 02:38:29;;;;;;;;;;;10.90;86.70;;;;;;5019292;28;19909;-86
2021/12/17 02:46:23;;;;;;;;;;;10.80;87.10;;;;;;5032584;28;19925;-85
2021/12/17 02:48:49;;;;;;;;;;;10.90;86.80;;;;;;5014825;28;20009;-86
2021/12/17 02:51:14;;;;;;;;;;;10.90;86.80;;;;;;5014182;28;20016;-85
2021/12/17 02:53:42;;;;;;;;;;;10.90;86.80;;;;;;5016060;28;21744;-86
2021/12/17 02:56:08;;;;;;;;;;;10.90;86.70;;;;;;5032868;28;20305;-86
2021/12/17 02:58:34;;;;;;;;;;;10.80;86.60;;;;;;5038402;28;19948;-86
2021/12/17 03:01:04;;;;;;;;;;;10.60;86.80;;;;;;5022152;28;20386;-87
2021/12/17 03:03:32;;;;;;;;;;;10.50;87.00;;;;;;5013083;28;19914;-87
2021/12/17 03:05:57;;;;;;;;;;;10.50;87.30;;;;;;5023119;28;20426;-86
2021/12/17 03:08:23;;;;;;;;;;;10.40;87.40;;;;;;5029795;28;19920;-86
2021/12/17 03:10:52;;;;;;;;;;;10.60;87.50;;;;;;5016540;28;19914;-86
2021/12/17 03:13:19;;;;;;;;;;;10.70;87.10;;;;;;5019139;28;20290;-87
2021/12/17 03:16:03;;;;;;;;;;;10.70;86.90;;;;;;5005097;28;19992;-87
2021/12/17 03:23:57;;;;;;;;;;;10.80;87.10;;;;;;5022245;28;19921;-85
2021/12/17 03:26:23;;;;;;;;;;;10.80;86.90;;;;;;5034652;28;19910;-86
2021/12/17 03:28:50;;;;;;;;;;;10.80;86.70;;;;;;5007545;28;19987;-85
2021/12/17 03:31:20;;;;;;;;;;;10.80;86.60;;;;;;5021736;28;19913;-85
2021/12/17 03:33:48;;;;;;;;;;;10.70;86.70;;;;;;5016576;28;19992;-86
2021/12/17 03:36:15;;;;;;;;;;;10.50;86.70;;;;;;5021284;28;19920;-85
2021/12/17 03:38:44;;;;;;;;;;;10.40;87.10;;;;;;5038968;28;19967;-85
2021/12/17 03:41:25;;;;;;;;;;;10.50;87.30;;;;;;5024492;28;20514;-86
2021/12/17 03:43:52;;;;;;;;;;;10.50;87.10;;;;;;5021036;28;19928;-86
2021/12/17 03:46:18;;;;;;;;;;;10.60;87.00;;;;;;5019220;28;19941;-86
2021/12/17 03:48:46;;;;;;;;;;;10.60;87.10;;;;;;5038183;28;19901;-86
2021/12/17 03:51:14;;;;;;;;;;;10.60;87.30;;;;;;5021755;28;19914;-86
2021/12/17 03:53:41;;;;;;;;;;;10.70;87.20;;;;;;5041333;28;20429;-86
2021/12/17 03:56:07;;;;;;;;;;;10.70;87.20;;;;;;5028983;28;19914;-86
2021/12/17 03:58:32;;;;;;;;;;;10.80;87.10;;;;;;5012969;28;19913;-86
2021/12/17 04:00:58;;;;;;;;;;;10.80;86.80;;;;;;5022325;28;19985;-86
2021/12/17 04:03:23;;;;;;;;;;;10.90;86.70;;;;;;5034814;28;19920;-87
2021/12/17 04:05:48;;;;;;;;;;;10.80;86.80;;;;;;5018672;28;19926;-87
2021/12/17 04:08:14;;;;;;;;;;;10.90;86.50;;;;;;5006858;28;19996;-87
2021/12/17 04:10:47;;;;;;;;;;;10.90;86.50;;;;;;5022397;28;19959;-86
2021/12/17 04:13:27;;;;;;;;;;;10.80;86.70;;;;;;5014470;28;19939;-86
2021/12/17 04:16:02;;;;;;;;;;;10.80;86.70;;;;;;5017440;28;19920;-86
2021/12/17 04:18:28;;;;;;;;;;;10.70;86.50;;;;;;4998924;28;20383;-86
2021/12/17 04:20:53;;;;;;;;;;;10.60;86.70;;;;;;5002978;28;19955;-85
2021/12/17 04:23:20;;;;;;;;;;;10.50;87.00;;;;;;5000628;28;19936;-85
2021/12/17 04:25:46;;;;;;;;;;;10.30;87.20;;;;;;5038252;28;19913;-86
2021/12/17 04:28:12;;;;;;;;;;;10.30;87.40;;;;;;5016904;28;19958;-85
2021/12/17 04:30:38;;;;;;;;;;;10.20;87.40;;;;;;5020195;28;20007;-85
2021/12/17 04:33:04;;;;;;;;;;;10.20;87.60;;;;;;5027923;28;19921;-86
2021/12/17 04:35:29;;;;;;;;;;;10.20;87.90;;;;;;5020998;28;19972;-86
2021/12/17 04:37:55;;;;;;;;;;;10.20;88.00;;;;;;5042167;28;19909;-85
2021/12/17 04:40:22;;;;;;;;;;;10.10;88.20;;;;;;5039249;28;19985;-86
2021/12/17 04:45:12;;;;;;;;;;;10.20;88.40;;;;;;5032384;28;19943;-86
2021/12/17 04:58:36;;;;;;;;;;;10.10;88.40;;;;;;5022623;28;20028;-86
2021/12/17 05:01:08;;;;;;;;;;;10.20;88.40;;;;;;4997937;28;20311;-85
2021/12/17 05:03:34;;;;;;;;;;;10.30;88.50;;;;;;5026096;28;19913;-85
2021/12/17 05:06:00;;;;;;;;;;;10.40;88.50;;;;;;5016403;28;19921;-87
2021/12/17 05:08:26;;;;;;;;;;;10.30;88.60;;;;;;5053420;28;19913;-86
2021/12/17 05:19:49;;;;;;;;;;;10.10;89.20;;;;;;5050845;28;19916;-86
2021/12/17 05:21:53;;;;;;;;;;;10.10;89.20;;;;;;5043516;28;19945;-86
2021/12/17 05:24:18;;;;;;;;;;;10.10;89.20;;;;;;5040069;28;19917;-87
2021/12/17 05:26:44;;;;;;;;;;;10.20;89.10;;;;;;5021636;28;19913;-87
2021/12/17 05:29:09;;;;;;;;;;;10.20;89.20;;;;;;5038842;28;20012;-87
2021/12/17 05:31:34;;;;;;;;;;;10.20;89.10;;;;;;5017743;28;19913;-86
2021/12/17 05:34:00;;;;;;;;;;;10.20;88.90;;;;;;5019226;28;19939;-86
2021/12/17 05:36:25;;;;;;;;;;;10.10;89.10;;;;;;5032995;28;19913;-85
2021/12/17 05:38:51;;;;;;;;;;;9.90;89.60;;;;;;5008880;28;19910;-87
2021/12/17 05:41:16;;;;;;;;;;;9.90;89.80;;;;;;5010387;28;20015;-86
2021/12/17 05:43:42;;;;;;;;;;;9.90;89.80;;;;;;5043268;28;19920;-87
2021/12/17 05:46:10;;;;;;;;;;;9.80;89.80;;;;;;5051248;28;19921;-87
2021/12/17 05:48:36;;;;;;;;;;;9.80;89.90;;;;;;5008452;28;19909;-87
2021/12/17 05:51:02;;;;;;;;;;;9.70;90.10;;;;;;5020966;28;19988;-86
2021/12/17 05:53:28;;;;;;;;;;;9.70;90.20;;;;;;5036947;28;19913;-87
2021/12/17 05:55:54;;;;;;;;;;;9.70;90.30;;;;;;5019644;28;19936;-85
2021/12/17 05:58:20;;;;;;;;;;;9.50;90.60;;;;;;5003358;28;20535;-87
2021/12/17 06:00:46;;;;;;;;;;;9.60;90.70;;;;;;5026180;28;20008;-88
2021/12/17 06:03:11;;;;;;;;;;;9.60;90.60;;;;;;5025845;28;19913;-86
2021/12/17 06:05:37;;;;;;;;;;;9.60;90.80;;;;;;5012347;28;19921;-86
2021/12/17 06:08:03;;;;;;;;;;;9.40;91.00;;;;;;5016257;28;19913;-86
2021/12/17 06:10:28;;;;;;;;;;;9.50;91.10;;;;;;5009775;28;19913;-88
2021/12/17 06:12:54;;;;;;;;;;;9.60;91.00;;;;;;5017174;28;19929;-88
2021/12/17 06:15:21;;;;;;;;;;;9.60;90.80;;;;;;5021907;28;19912;-87
2021/12/17 06:17:47;;;;;;;;;;;9.50;90.90;;;;;;5004152;28;20003;-87
2021/12/17 06:20:13;;;;;;;;;;;9.40;90.90;;;;;;5011063;28;19917;-85
2021/12/17 06:22:39;;;;;;;;;;;9.50;91.00;;;;;;5013849;28;19908;-86
2021/12/17 06:25:05;;;;;;;;;;;9.60;91.00;;;;;;5014481;28;19917;-87
2021/12/17 06:27:30;;;;;;;;;;;9.60;90.60;;;;;;5013900;28;19978;-86
2021/12/17 06:29:57;;;;;;;;;;;9.50;90.70;;;;;;5014436;28;19909;-86
2021/12/17 06:32:23;;;;;;;;;;;9.50;90.80;;;;;;4998665;28;19945;-86
2021/12/17 06:34:48;;;;;;;;;;;9.60;90.70;;;;;;5001521;28;19920;-85
2021/12/17 06:37:22;;;;;;;;;;;9.60;90.90;;;;;;5009857;28;19917;-86
2021/12/17 06:39:48;;;;;;;;;;;9.60;90.80;;;;;;4999102;28;19914;-85
2021/12/17 06:42:16;;;;;;;;;;;9.60;90.40;;;;;;4995894;28;19917;-83
2021/12/17 06:44:42;;;;;;;;;;;9.70;90.40;;;;;;5004001;28;19931;-85
2021/12/17 06:47:13;;;;;;;;;;;9.70;90.20;;;;;;5039789;28;19992;-85
2021/12/17 06:55:12;;;;;;;;;;;9.60;90.00;;;;;;5022740;28;19924;-84
2021/12/17 07:00:34;;;;;;;;;;;9.70;90.30;;;;;;5013991;28;19909;-86
2021/12/17 07:11:16;;;;;;;;;;;9.40;90.50;;;;;;5031544;28;19920;-85
2021/12/17 07:31:37;;;;;;;;;;;9.70;90.20;;;;;;5019856;28;19963;-84
2021/12/17 07:32:52;;;;;;;;;;;9.60;89.70;;;;;;5018411;28;19992;-82
2021/12/17 07:40:31;;;;;;;;;;;9.60;90.00;;;;;;5028918;28;19979;-83
2021/12/17 07:42:56;;;;;;;;;;;9.60;89.70;;;;;;5002781;28;19913;-84
2021/12/17 07:45:22;;;;;;;;;;;9.50;90.00;;;;;;5024778;28;20004;-84
2021/12/17 07:47:50;;;;;;;;;;;9.50;90.00;;;;;;5038850;28;20062;-86
2021/12/17 07:50:16;;;;;;;;;;;9.50;90.00;;;;;;5017797;28;19925;-85
2021/12/17 07:52:41;;;;;;;;;;;9.60;89.80;;;;;;5028057;28;19917;-85
2021/12/17 07:55:07;;;;;;;;;;;9.60;89.70;;;;;;5013890;28;19928;-86
2021/12/17 07:57:32;;;;;;;;;;;9.40;89.60;;;;;;5017705;28;19956;-86
2021/12/17 07:59:58;;;;;;;;;;;9.40;90.00;;;;;;5010098;28;19913;-85
2021/12/17 08:02:23;;;;;;;;;;;9.40;90.30;;;;;;5033279;28;19913;-86
2021/12/17 08:04:48;;;;;;;;;;;9.40;90.20;;;;;;5033806;28;20407;-85
2021/12/17 08:07:14;;;;;;;;;;;9.30;90.10;;;;;;5057418;28;19928;-86
2021/12/17 08:09:40;;;;;;;;;;;9.20;90.20;;;;;;5043208;28;19963;-86
2021/12/17 08:12:09;;;;;;;;;;;9.20;90.30;;;;;;5038601;28;19988;-85
2021/12/17 08:14:34;;;;;;;;;;;9.10;90.30;;;;;;5013026;28;20376;-84
2021/12/17 08:25:15;;;;;;;;;;;9.20;90.40;;;;;;5034138;28;19962;-84
2021/12/17 08:28:49;;;;;;;;;;;;;;;;;;;;;
2021/12/17 08:34:02;;;;;;;;;;;9.20;90.90;;;;;;4992263;28;19929;-87
2021/12/17 08:36:43;;;;;;;;;;;9.30;90.50;;;;;;4991679;28;19920;-87
2021/12/17 08:42:39;;;;;;;;;;;9.20;90.80;;;;;;4878979;29;19972;-87
2021/12/17 08:45:07;;;;;;;;;;;9.20;90.50;;;;;;4871747;29;19915;-87
2021/12/17 08:47:40;;;;;;;;;;;9.20;90.80;;;;;;4902516;29;19912;-86
2021/12/17 08:50:19;;;;;;;;;;;9.30;90.80;;;;;;4896824;29;19947;-84
2021/12/17 08:52:44;;;;;;;;;;;9.30;90.80;;;;;;4904353;28;20038;-86
2021/12/17 08:55:10;;;;;;;;;;;9.40;90.50;;;;;;4964670;28;19902;-86
2021/12/17 08:57:36;;;;;;;;;;;9.40;90.40;;;;;;5015646;28;19913;-87
2021/12/17 09:00:06;;;;;;;;;;;9.30;90.30;;;;;;5014890;28;19933;-87
2021/12/17 09:02:33;;;;;;;;;;;9.50;89.90;;;;;;5039220;28;19936;-88
2021/12/17 09:04:59;;;;;;;;;;;9.50;90.00;;;;;;5019282;28;20356;-85
2021/12/17 09:07:24;;;;;;;;;;;9.40;89.80;;;;;;5001325;28;19992;-86
2021/12/17 09:09:50;;;;;;;;;;;9.40;90.00;;;;;;5012409;28;19917;-85
2021/12/17 09:12:15;;;;;;;;;;;9.40;90.10;;;;;;5012127;28;19909;-86
2021/12/17 09:14:41;;;;;;;;;;;9.40;90.20;;;;;;5018373;28;20024;-83
2021/12/17 09:17:06;;;;;;;;;;;9.60;89.70;;;;;;5032087;28;19976;-88
2021/12/17 09:19:33;;;;;;;;;;;9.60;89.80;;;;;;5035162;28;19931;-87
2021/12/17 09:21:59;;;;;;;;;;;9.50;89.80;;;;;;5001987;28;19910;-87
2021/12/17 09:24:25;;;;;;;;;;;9.50;90.20;;;;;;5000307;28;19928;-87
2021/12/17 09:26:51;;;;;;;;;;;9.30;89.90;;;;;;5035492;28;19985;-87
2021/12/17 09:29:16;;;;;;;;;;;9.30;90.50;;;;;;5033347;28;19959;-86
2021/12/17 09:31:42;;;;;;;;;;;9.30;90.20;;;;;;5021929;28;19921;-86
2021/12/17 09:34:07;;;;;;;;;;;9.20;90.20;;;;;;4998631;28;19909;-86
2021/12/17 09:36:33;;;;;;;;;;;9.20;90.70;;;;;;4995533;28;19910;-87
2021/12/17 09:38:59;;;;;;;;;;;9.20;90.50;;;;;;5010214;28;19910;-87
2021/12/17 09:41:26;;;;;;;;;;;9.30;90.50;;;;;;5015474;28;19932;-86
2021/12/17 09:43:53;;;;;;;;;;;9.20;90.40;;;;;;5014735;28;19959;-87
2021/12/17 09:46:18;;;;;;;;;;;9.20;90.40;;;;;;5013060;28;20016;-87
2021/12/17 09:48:47;;;;;;;;;;;9.30;90.40;;;;;;4994909;28;20352;-87
2021/12/17 09:51:14;;;;;;;;;;;9.30;90.30;;;;;;5022430;28;19972;-87
2021/12/17 09:53:39;;;;;;;;;;;9.20;90.40;;;;;;5015320;28;19909;-87
2021/12/17 09:56:05;;;;;;;;;;;9.30;90.40;;;;;;5014911;28;19909;-86
2021/12/17 09:58:32;;;;;;;;;;;9.40;90.40;;;;;;5015366;28;19967;-87
2021/12/17 10:00:57;;;;;;;;;;;9.30;90.30;;;;;;5014110;28;19936;-87
2021/12/17 10:03:23;;;;;;;;;;;9.30;90.40;;;;;;5015965;28;19920;-87
2021/12/17 10:05:49;;;;;;;;;;;9.50;90.50;;;;;;5015599;28;19920;-86
2021/12/17 10:08:17;;;;;;;;;;;9.50;90.40;;;;;;5017644;28;19909;-87
2021/12/17 10:10:45;;;;;;;;;;;9.40;90.60;;;;;;5020366;28;21157;-87
2021/12/17 10:13:13;;;;;;;;;;;9.60;90.70;;;;;;5014911;28;20182;-86
2021/12/17 10:15:40;;;;;;;;;;;9.70;90.40;;;;;;5025636;28;19909;-87
2021/12/17 10:18:08;;;;;;;;;;;9.80;90.40;;;;;;5019245;28;19920;-86
2021/12/17 10:20:53;;;;;;;;;;;9.80;90.20;;;;;;5005932;28;19913;-86
2021/12/17 10:23:20;;;;;;;;;;;10.00;89.40;;;;;;5013534;28;19997;-87
2021/12/17 10:25:46;;;;;;;;;;;9.80;89.10;;;;;;5009401;28;20004;-84
2021/12/17 10:28:12;;;;;;;;;;;9.80;89.20;;;;;;5024216;28;20404;-85
2021/12/17 10:30:39;;;;;;;;;;;9.80;89.10;;;;;;5008943;28;20351;-85
2021/12/17 10:33:06;;;;;;;;;;;9.90;89.10;;;;;;5015621;28;19909;-85
2021/12/17 10:35:33;;;;;;;;;;;10.00;88.60;;;;;;5005127;28;19918;-85
2021/12/17 10:38:02;;;;;;;;;;;9.90;88.90;;;;;;5008353;28;19920;-84
2021/12/17 10:40:28;;;;;;;;;;;9.90;88.60;;;;;;5039227;28;19923;-85
2021/12/17 10:43:17;;;;;;;;;;;10.00;88.20;;;;;;5031044;28;19913;-85
2021/12/17 10:45:47;;;;;;;;;;;10.00;88.30;;;;;;5018779;28;19924;-84
2021/12/17 10:48:24;;;;;;;;;;;10.10;88.20;;;;;;5018316;28;19913;-84
2021/12/17 10:50:51;;;;;;;;;;;10.00;87.80;;;;;;5028422;28;20185;-84
2021/12/17 10:53:20;;;;;;;;;;;9.80;87.70;;;;;;5003401;28;20383;-84
2021/12/17 10:55:49;;;;;;;;;;;9.60;88.30;;;;;;5015475;28;20059;-84
2021/12/17 10:58:14;;;;;;;;;;;9.60;88.80;;;;;;5004728;28;19909;-85
2021/12/17 11:01:11;;;;;;;;;;;9.60;89.00;;;;;;5008216;28;19920;-85
2021/12/17 11:03:40;;;;;;;;;;;9.70;88.70;;;;;;4988726;28;19913;-85
2021/12/17 11:06:22;;;;;;;;;;;9.60;88.60;;;;;;5031161;28;19917;-85
2021/12/17 11:08:47;;;;;;;;;;;9.60;88.40;;;;;;5031455;28;20010;-86
2021/12/17 11:11:13;;;;;;;;;;;9.50;88.30;;;;;;5026283;28;20022;-85
2021/12/17 11:13:52;;;;;;;;;;;9.60;88.40;;;;;;5010570;28;19914;-86
2021/12/17 11:16:19;;;;;;;;;;;9.50;88.60;;;;;;5008542;28;19956;-84
2021/12/17 11:18:45;;;;;;;;;;;9.50;88.90;;;;;;5028216;28;19912;-85
2021/12/17 11:21:12;;;;;;;;;;;9.50;88.80;;;;;;5046161;28;20315;-85
2021/12/17 11:23:37;;;;;;;;;;;9.50;88.60;;;;;;5006766;28;20295;-85
2021/12/17 11:26:03;;;;;;;;;;;9.50;88.80;;;;;;5034864;28;19917;-85
2021/12/17 11:28:29;;;;;;;;;;;9.60;88.60;;;;;;5019637;28;19960;-85
2021/12/17 11:30:54;;;;;;;;;;;9.50;88.40;;;;;;5016434;28;19936;-85
2021/12/17 11:33:20;;;;;;;;;;;9.30;88.20;;;;;;5018361;28;20437;-85
2021/12/17 11:35:46;;;;;;;;;;;9.30;88.60;;;;;;5010880;28;19913;-85
2021/12/17 11:38:21;;;;;;;;;;;9.30;88.50;;;;;;5014796;28;20267;-86
2021/12/17 11:40:49;;;;;;;;;;;9.30;88.40;;;;;;5031098;28;19913;-85
2021/12/17 11:43:23;;;;;;;;;;;9.50;88.00;;;;;;5014218;28;19913;-87
2021/12/17 11:48:54;;;;;;;;;;;9.50;87.40;;;;;;5044710;28;19905;-85
2021/12/17 11:51:23;;;;;;;;;;;9.40;87.70;;;;;;5038686;28;20024;-86
2021/12/17 11:53:52;;;;;;;;;;;9.40;87.60;;;;;;5022757;28;19913;-86
2021/12/17 11:56:31;;;;;;;;;;;9.30;88.00;;;;;;5029354;28;20334;-86
2021/12/17 11:58:57;;;;;;;;;;;9.30;88.00;;;;;;5011864;28;19933;-86
2021/12/17 12:01:41;;;;;;;;;;;9.30;88.00;;;;;;5022326;28;19932;-86
2021/12/17 12:04:26;;;;;;;;;;;9.30;88.10;;;;;;5015885;28;19924;-88
2021/12/17 12:07:00;;;;;;;;;;;9.30;87.70;;;;;;5017516;28;19984;-88
2021/12/17 12:09:44;;;;;;;;;;;9.30;88.00;;;;;;5033064;28;19933;-88
2021/12/17 12:12:10;;;;;;;;;;;9.50;87.90;;;;;;5033901;28;19963;-88
2021/12/17 12:14:36;;;;;;;;;;;9.50;87.50;;;;;;5019608;28;19917;-87
2021/12/17 12:17:01;;;;;;;;;;;9.50;87.30;;;;;;5014985;28;19921;-87
2021/12/17 12:19:46;;;;;;;;;;;9.60;86.90;;;;;;5022577;28;19921;-87
2021/12/17 12:22:12;;;;;;;;;;;9.50;87.20;;;;;;5020632;28;19924;-86
2021/12/17 12:24:38;;;;;;;;;;;9.70;86.90;;;;;;5017493;28;19913;-86
2021/12/17 12:27:04;;;;;;;;;;;9.60;86.60;;;;;;5016650;28;19919;-87
2021/12/17 12:29:30;;;;;;;;;;;9.30;85.30;;;;;;5023125;28;20004;-85
2021/12/17 12:31:57;;;;;;;;;;;9.30;85.40;;;;;;5010583;28;19972;-86
2021/12/17 12:34:33;;;;;;;;;;;9.20;85.40;;;;;;5007138;28;19917;-85
2021/12/17 12:37:00;;;;;;;;;;;9.10;85.70;;;;;;5010634;28;19921;-87
2021/12/17 12:39:29;;;;;;;;;;;9.10;86.10;;;;;;5034320;28;20383;-86
2021/12/17 12:41:55;;;;;;;;;;;9.20;85.50;;;;;;5011030;28;20296;-84
2021/12/17 12:44:21;;;;;;;;;;;9.30;85.30;;;;;;5005239;28;19937;-86
2021/12/17 12:46:54;;;;;;;;;;;9.20;84.70;;;;;;5006136;28;20432;-86
2021/12/17 12:49:39;;;;;;;;;;;9.20;84.70;;;;;;5038707;28;19913;-84
2021/12/17 12:52:23;;;;;;;;;;;9.20;84.40;;;;;;5025554;28;20032;-86
2021/12/17 12:54:53;;;;;;;;;;;9.20;84.40;;;;;;5013156;28;19979;-86
2021/12/17 12:57:30;;;;;;;;;;;9.20;83.90;;;;;;5006462;28;19959;-86
2021/12/17 12:59:58;;;;;;;;;;;9.20;83.70;;;;;;5024727;28;19960;-86
2021/12/17 13:02:27;;;;;;;;;;;9.20;83.60;;;;;;5025904;28;19944;-85
2021/12/17 13:04:57;;;;;;;;;;;9.20;83.80;;;;;;5027931;28;19928;-86
2021/12/17 13:07:38;;;;;;;;;;;9.40;83.50;;;;;;5021104;28;19936;-87
2021/12/17 13:10:08;;;;;;;;;;;9.40;83.20;;;;;;5012446;28;20062;-88
2021/12/17 13:12:35;;;;;;;;;;;9.60;82.50;;;;;;5006486;28;19993;-88
2021/12/17 13:15:32;;;;;;;;;;;9.50;82.70;;;;;;5006438;28;20480;-88
2021/12/17 13:20:55;;;;;;;;;;;9.40;83.60;;;;;;5021775;28;19924;-87
2021/12/17 13:23:22;;;;;;;;;;;9.30;81.60;;;;;;5015219;28;19924;-88
2021/12/17 13:26:01;;;;;;;;;;;9.40;80.90;;;;;;5014645;28;19928;-89
2021/12/17 13:28:27;;;;;;;;;;;9.40;81.10;;;;;;5009744;28;19913;-90
2021/12/17 13:30:56;;;;;;;;;;;9.40;80.60;;;;;;5024434;28;19975;-88
2021/12/17 13:33:21;;;;;;;;;;;9.40;79.50;;;;;;5009117;28;20032;-86
2021/12/17 13:35:47;;;;;;;;;;;9.40;79.70;;;;;;5005105;28;20436;-88
2021/12/17 13:38:12;;;;;;;;;;;9.40;79.00;;;;;;5009646;28;19920;-88
2021/12/17 13:40:38;;;;;;;;;;;9.40;79.60;;;;;;5011497;28;20360;-89
2021/12/17 13:43:03;;;;;;;;;;;9.50;80.70;;;;;;5007538;28;19920;-88
2021/12/17 13:45:30;;;;;;;;;;;9.40;80.40;;;;;;5007765;28;19925;-88
2021/12/17 13:47:57;;;;;;;;;;;9.50;80.70;;;;;;5010556;28;19921;-88
2021/12/17 13:50:24;;;;;;;;;;;9.50;80.80;;;;;;5004273;28;20012;-84
2021/12/17 13:53:10;;;;;;;;;;;9.60;80.20;;;;;;5008861;28;19914;-86
2021/12/17 13:55:36;;;;;;;;;;;9.60;79.90;;;;;;5020862;28;19976;-85
2021/12/17 13:58:05;;;;;;;;;;;9.70;80.80;;;;;;5015279;28;19921;-83
2021/12/17 14:00:34;;;;;;;;;;;9.80;80.70;;;;;;5016742;28;20094;-82
2021/12/17 14:03:00;;;;;;;;;;;9.90;78.90;;;;;;5032623;28;19908;-84
2021/12/17 14:05:29;;;;;;;;;;;9.80;78.50;;;;;;5016555;28;19929;-84
2021/12/17 14:07:56;;;;;;;;;;;9.50;78.50;;;;;;5009511;28;19921;-86
2021/12/17 14:10:22;;;;;;;;;;;9.50;77.60;;;;;;5019018;28;19921;-86
2021/12/17 14:12:49;;;;;;;;;;;9.20;78.50;;;;;;5033332;28;19917;-85
2021/12/17 14:15:19;;;;;;;;;;;9.20;79.50;;;;;;4994875;28;19913;-87
2021/12/17 14:17:46;;;;;;;;;;;9.20;79.80;;;;;;5021474;28;19917;-86
2021/12/17 14:20:14;;;;;;;;;;;9.30;79.40;;;;;;4997370;28;19918;-85
2021/12/17 14:22:41;;;;;;;;;;;9.40;78.90;;;;;;5001895;28;19920;-87
2021/12/17 14:25:23;;;;;;;;;;;9.40;79.00;;;;;;5001742;28;20011;-85
2021/12/17 14:27:49;;;;;;;;;;;9.50;78.60;;;;;;4999022;28;19917;-85
2021/12/17 14:30:14;;;;;;;;;;;9.60;79.00;;;;;;5000146;28;20263;-85
2021/12/17 14:32:47;;;;;;;;;;;9.60;79.50;;;;;;5003379;28;19921;-90
2021/12/17 14:35:36;;;;;;;;;;;9.60;79.80;;;;;;5009580;28;19920;-90
2021/12/17 14:38:03;;;;;;;;;;;9.40;79.80;;;;;;5009294;28;20294;-89
2021/12/17 14:40:35;;;;;;;;;;;9.50;80.20;;;;;;5013560;28;20244;-87
2021/12/17 14:43:01;;;;;;;;;;;9.30;80.00;;;;;;5011760;28;19967;-90
2021/12/17 14:45:31;;;;;;;;;;;9.30;80.20;;;;;;5022311;28;19917;-89
2021/12/17 14:48:13;;;;;;;;;;;9.40;79.90;;;;;;5002276;28;19917;-85
2021/12/17 15:01:50;;;;;;;;;;;9.40;80.50;;;;;;5019155;28;19918;-84
2021/12/17 15:04:15;;;;;;;;;;;9.30;79.90;;;;;;5001582;28;20288;-83
2021/12/17 15:06:41;;;;;;;;;;;9.30;80.10;;;;;;5046252;28;19916;-83
2021/12/17 15:09:06;;;;;;;;;;;9.30;79.70;;;;;;5019805;28;19917;-84
2021/12/17 15:11:37;;;;;;;;;;;9.40;80.10;;;;;;5009703;28;19921;-83
2021/12/17 15:14:02;;;;;;;;;;;9.40;79.90;;;;;;4999261;28;19913;-85
2021/12/17 15:16:28;;;;;;;;;;;9.30;79.70;;;;;;5000362;28;19924;-84
2021/12/17 15:18:53;;;;;;;;;;;9.30;80.20;;;;;;4995603;28;19920;-85
2021/12/17 15:21:19;;;;;;;;;;;9.30;80.20;;;;;;5003327;28;20292;-84
2021/12/17 15:23:45;;;;;;;;;;;9.30;80.40;;;;;;5002873;28;20000;-87
2021/12/17 15:26:10;;;;;;;;;;;9.40;80.90;;;;;;4997825;28;19936;-86
2021/12/17 15:28:35;;;;;;;;;;;9.30;80.50;;;;;;4996423;28;20695;-86
2021/12/17 15:31:05;;;;;;;;;;;9.20;80.60;;;;;;5004696;28;19917;-84
2021/12/17 15:33:31;;;;;;;;;;;9.20;80.40;;;;;;5007921;28;19918;-85
2021/12/17 15:35:58;;;;;;;;;;;9.10;80.40;;;;;;5026424;28;19952;-85
2021/12/17 15:38:23;;;;;;;;;;;9.10;80.80;;;;;;5019714;28;19929;-88
2021/12/17 15:40:49;;;;;;;;;;;9.00;81.30;;;;;;4998215;28;20051;-87
2021/12/17 15:43:16;;;;;;;;;;;9.00;81.80;;;;;;5017027;28;19913;-84
2021/12/17 15:45:42;;;;;;;;;;;8.80;81.70;;;;;;5034519;28;19921;-88
2021/12/17 15:48:09;;;;;;;;;;;8.80;82.10;;;;;;5001660;28;20004;-84
2021/12/17 15:50:35;;;;;;;;;;;8.80;82.40;;;;;;4999937;28;19923;-86
2021/12/17 15:53:01;;;;;;;;;;;8.80;82.20;;;;;;5005400;28;19917;-84
2021/12/17 15:55:28;;;;;;;;;;;8.80;81.60;;;;;;4996610;28;19976;-83
2021/12/17 15:57:54;;;;;;;;;;;8.90;81.70;;;;;;4996083;28;19924;-85
2021/12/17 16:00:20;;;;;;;;;;;8.90;82.00;;;;;;5006991;28;20356;-88
2021/12/17 16:02:46;;;;;;;;;;;8.80;81.70;;;;;;5001989;28;20303;-87
2021/12/17 16:05:13;;;;;;;;;;;8.70;81.90;;;;;;5012850;28;19953;-89
2021/12/17 16:07:39;;;;;;;;;;;8.70;81.40;;;;;;5017710;28;19940;-88
2021/12/17 16:21:00;;;;;;;;;;;8.80;81.60;;;;;;5017313;28;19910;-86
2021/12/17 16:23:26;;;;;;;;;;;9.00;81.70;;;;;;5032687;28;19912;-83
2021/12/17 16:25:52;;;;;;;;;;;9.10;80.80;;;;;;5030376;28;20340;-88
2021/12/17 16:28:17;;;;;;;;;;;9.10;80.10;;;;;;5009128;28;20058;-88
2021/12/17 16:30:53;;;;;;;;;;;9.00;80.60;;;;;;5032202;28;19924;-87
2021/12/17 16:33:19;;;;;;;;;;;8.90;80.10;;;;;;5029764;28;19971;-88
2021/12/17 16:35:44;;;;;;;;;;;8.90;80.30;;;;;;5017901;28;19913;-87
2021/12/17 16:38:10;;;;;;;;;;;8.90;80.50;;;;;;5016936;28;19917;-86
2021/12/17 16:40:37;;;;;;;;;;;9.10;79.60;;;;;;5015861;28;20019;-88
2021/12/17 16:43:04;;;;;;;;;;;8.90;79.50;;;;;;5016160;28;19909;-86
2021/12/17 16:45:39;;;;;;;;;;;8.80;80.00;;;;;;5025047;28;19925;-88
2021/12/17 16:48:05;;;;;;;;;;;8.80;80.90;;;;;;5012469;28;19916;-88
2021/12/17 16:50:32;;;;;;;;;;;8.60;80.10;;;;;;5010854;28;19975;-87
2021/12/17 16:52:58;;;;;;;;;;;8.60;80.40;;;;;;5006551;28;20398;-87
2021/12/17 16:55:24;;;;;;;;;;;8.70;80.70;;;;;;5016454;28;20410;-86
2021/12/17 16:57:50;;;;;;;;;;;8.80;80.80;;;;;;5006038;28;19913;-89
2021/12/17 17:00:15;;;;;;;;;;;8.80;81.50;;;;;;5014289;28;20004;-85
2021/12/17 17:02:41;;;;;;;;;;;8.90;81.20;;;;;;5015052;28;19924;-85
2021/12/17 17:05:07;;;;;;;;;;;9.00;80.80;;;;;;5035151;28;19920;-85
2021/12/17 17:07:35;;;;;;;;;;;8.90;80.50;;;;;;5044640;28;19913;-86
2021/12/17 17:10:01;;;;;;;;;;;8.90;80.30;;;;;;5032169;28;19917;-85
2021/12/17 17:12:29;;;;;;;;;;;8.80;80.30;;;;;;5017994;28;19925;-86
2021/12/17 17:14:55;;;;;;;;;;;8.80;80.70;;;;;;5024617;28;19910;-87
2021/12/17 17:17:20;;;;;;;;;;;8.80;81.00;;;;;;5017467;28;19916;-86
2021/12/17 17:19:47;;;;;;;;;;;8.90;81.30;;;;;;5019286;28;19920;-86
2021/12/17 17:22:15;;;;;;;;;;;8.90;80.80;;;;;;5017144;28;19932;-86
2021/12/17 17:24:41;;;;;;;;;;;8.80;79.60;;;;;;5025515;28;19974;-87
2021/12/17 17:27:07;;;;;;;;;;;8.60;79.50;;;;;;5035776;28;19913;-86
2021/12/17 17:29:33;;;;;;;;;;;8.70;79.80;;;;;;5012124;28;20012;-86
2021/12/17 17:31:58;;;;;;;;;;;8.80;80.70;;;;;;5018848;28;20453;-87
2021/12/17 17:34:24;;;;;;;;;;;8.80;80.50;;;;;;5019893;28;19909;-84
2021/12/17 17:36:49;;;;;;;;;;;8.80;80.80;;;;;;5038552;28;19970;-86
2021/12/17 17:39:15;;;;;;;;;;;8.80;80.40;;;;;;5033729;28;19909;-86
2021/12/17 17:41:41;;;;;;;;;;;9.00;80.20;;;;;;5019314;28;20007;-86
2021/12/17 17:44:08;;;;;;;;;;;9.00;80.10;;;;;;5032937;28;20379;-84
2021/12/17 17:46:34;;;;;;;;;;;9.10;80.00;;;;;;5009831;28;19921;-86